Cremona, Canada
Current Conditions -  °F | °C
As of 8:00 PM on Friday 19 Dec 2014 (Local Time) from CYBW Reporting Station
Overcast Overcast  
Wind Chill: 25°   Ceiling: 15000
Heat Index: 36°   Visibility: 9mi
Dew Point: 27°   Wind: 20mph
Humidity: 70%   Direction: 260°W
Pressure: 29.65"   Gusts: NA
Location:  51.55°N, 114.47°W
Report Text: CYBW 200300Z AUTO 26017KT 9SM OVC150 02/M03 A2965 RMK SLP090
Loading
Personal Weather Stations






























Interactive Weather Map New forecast layout! Learn more

10-Day Weather Forecast

Advertisements
Track Severe Weather on mobile